createdAt,value
2023-01-06T00:01:21.939Z,6.73
2023-01-06T00:03:25.513Z,6.72
2023-01-06T00:05:29.370Z,6.72
2023-01-06T00:07:34.443Z,6.69
2023-01-06T00:09:40.289Z,6.70
2023-01-06T00:11:44.069Z,6.70
2023-01-06T00:13:47.677Z,6.70
2023-01-06T00:15:51.635Z,6.70
2023-01-06T00:17:55.859Z,6.71
2023-01-06T00:19:59.376Z,6.70
2023-01-06T00:22:03.002Z,6.70
2023-01-06T00:24:07.435Z,6.67
2023-01-06T00:26:13.114Z,6.67
2023-01-06T00:28:16.705Z,6.67
2023-01-06T00:30:20.284Z,6.67
2023-01-06T00:32:23.878Z,6.65
2023-01-06T00:34:28.647Z,6.64
2023-01-06T00:36:32.253Z,6.64
2023-01-06T00:38:37.329Z,6.63
2023-01-06T00:40:41.022Z,6.64
2023-01-06T00:42:45.940Z,6.63
2023-01-06T00:44:49.814Z,6.63
2023-01-06T00:46:53.289Z,6.63
2023-01-06T00:49:07.237Z,6.62
2023-01-06T00:51:10.854Z,6.62
2023-01-06T00:53:14.363Z,6.59
2023-01-06T00:55:19.936Z,6.59
2023-01-06T00:57:23.864Z,6.57
2023-01-06T00:59:29.456Z,6.58
2023-01-06T01:01:33.203Z,6.57
2023-01-06T01:03:38.805Z,6.56
2023-01-06T01:05:42.474Z,6.55
2023-01-06T01:07:46.252Z,6.53
2023-01-06T01:09:50.415Z,6.52
2023-01-06T01:12:13.068Z,6.52
2023-01-06T01:14:18.362Z,6.51
2023-01-06T01:16:24.379Z,6.51
2023-01-06T01:18:27.987Z,6.50
2023-01-06T01:20:33.233Z,6.49
2023-01-06T01:22:37.549Z,6.48
2023-01-06T01:24:41.212Z,6.48
2023-01-06T01:26:44.913Z,6.47
2023-01-06T01:28:48.442Z,6.46
2023-01-06T01:30:51.948Z,6.44
2023-01-06T01:32:57.021Z,6.42
2023-01-06T01:35:01.860Z,6.41
2023-01-06T01:37:05.754Z,6.41
2023-01-06T01:39:09.369Z,6.39
2023-01-06T01:41:16.327Z,6.39
2023-01-06T01:43:20.280Z,6.38
2023-01-06T01:45:28.711Z,6.38
2023-01-06T01:47:40.581Z,6.37
2023-01-06T01:49:47.640Z,6.36
2023-01-06T01:51:53.357Z,6.36
2023-01-06T01:54:01.345Z,6.34
2023-01-06T01:56:09.920Z,6.33
2023-01-06T01:58:17.741Z,6.30
2023-01-06T02:00:21.795Z,6.28
2023-01-06T02:02:26.103Z,6.26
2023-01-06T02:04:30.504Z,6.25
2023-01-06T02:06:36.174Z,6.23
2023-01-06T02:08:42.187Z,6.23
2023-01-06T02:10:45.444Z,6.21
2023-01-06T02:12:52.414Z,6.21
2023-01-06T02:14:56.745Z,6.18
2023-01-06T02:17:17.598Z,6.16
2023-01-06T02:19:55.769Z,6.15
2023-01-06T02:22:23.167Z,6.12
2023-01-06T02:25:08.051Z,6.10
2023-01-06T02:27:37.379Z,6.09
2023-01-06T02:30:09.766Z,6.09
2023-01-06T02:32:28.617Z,6.09
2023-01-06T02:34:44.697Z,6.08
2023-01-06T02:37:00.052Z,6.07
2023-01-06T02:39:18.012Z,6.06
2023-01-06T02:41:33.103Z,6.06
2023-01-06T02:43:47.413Z,6.06
2023-01-06T02:46:00.152Z,6.04
2023-01-06T02:48:14.033Z,6.04
2023-01-06T02:50:23.361Z,6.04
2023-01-06T02:52:37.621Z,6.05
2023-01-06T02:54:47.403Z,6.05
2023-01-06T02:56:55.682Z,6.06
2023-01-06T02:59:06.463Z,6.03
2023-01-06T03:01:16.371Z,6.01
2023-01-06T03:03:24.546Z,6.01
2023-01-06T03:05:30.322Z,6.01
2023-01-06T03:07:35.561Z,6.01
2023-01-06T03:09:39.870Z,6.00
2023-01-06T03:11:47.037Z,5.99
2023-01-06T03:13:54.529Z,5.99
2023-01-06T03:15:57.869Z,5.98
2023-01-06T03:18:01.789Z,5.98
2023-01-06T03:20:08.136Z,5.97
2023-01-06T03:22:14.429Z,5.96
2023-01-06T03:24:19.580Z,5.96
2023-01-06T03:26:25.952Z,5.95
2023-01-06T03:28:29.762Z,5.95
2023-01-06T03:30:43.334Z,5.93
2023-01-06T03:32:55.251Z,5.93
2023-01-06T03:35:12.121Z,5.90
2023-01-06T03:37:26.861Z,5.89
2023-01-06T03:39:40.848Z,5.87
2023-01-06T03:42:06.111Z,5.87
2023-01-06T03:44:16.859Z,5.85
2023-01-06T03:46:26.786Z,5.84
2023-01-06T03:48:39.356Z,5.83
2023-01-06T03:50:49.849Z,5.81
2023-01-06T03:53:00.541Z,5.80
2023-01-06T03:55:09.888Z,5.80
2023-01-06T03:57:18.190Z,5.81
2023-01-06T03:59:26.671Z,5.82
2023-01-06T04:01:32.053Z,5.83
2023-01-06T04:03:36.467Z,5.82
2023-01-06T04:05:40.142Z,5.82
2023-01-06T04:07:46.534Z,5.81
2023-01-06T04:09:51.551Z,5.78
2023-01-06T04:12:12.623Z,5.78
2023-01-06T04:14:16.823Z,5.78
2023-01-06T04:16:20.493Z,5.77
2023-01-06T04:18:24.119Z,5.76
2023-01-06T04:20:31.728Z,5.76
2023-01-06T04:22:42.385Z,5.77
2023-01-06T04:24:47.323Z,5.78
2023-01-06T04:26:51.047Z,5.78
2023-01-06T04:28:54.591Z,5.78
2023-01-06T04:30:59.356Z,5.79
2023-01-06T04:33:03.372Z,5.76
2023-01-06T04:35:07.552Z,5.76
2023-01-06T04:37:11.379Z,5.76
2023-01-06T04:39:14.964Z,5.77
2023-01-06T04:41:19.896Z,5.79
2023-01-06T04:43:24.337Z,5.81
2023-01-06T04:45:27.950Z,5.81
2023-01-06T04:47:32.843Z,5.82
2023-01-06T04:49:36.540Z,5.82
2023-01-06T04:51:40.294Z,5.83
2023-01-06T04:53:43.773Z,5.84
2023-01-06T04:55:47.364Z,5.84
2023-01-06T04:57:52.289Z,5.85
2023-01-06T04:59:55.912Z,5.87
2023-01-06T05:01:59.473Z,5.89
2023-01-06T05:04:03.419Z,5.91
2023-01-06T05:06:10.133Z,5.92
2023-01-06T05:08:13.856Z,5.93
2023-01-06T05:10:17.652Z,5.93
2023-01-06T05:12:21.222Z,5.95
2023-01-06T05:14:26.257Z,5.95
2023-01-06T05:16:32.058Z,5.96
2023-01-06T05:18:35.807Z,5.95
2023-01-06T05:20:39.320Z,5.96
2023-01-06T05:22:42.961Z,5.97
2023-01-06T05:24:46.502Z,5.97
2023-01-06T05:26:50.051Z,5.97
2023-01-06T05:28:54.340Z,5.98
2023-01-06T05:31:02.388Z,5.98
2023-01-06T05:33:05.991Z,5.98
2023-01-06T05:35:10.501Z,5.99
2023-01-06T05:37:14.191Z,6.00
2023-01-06T05:39:18.023Z,6.01
2023-01-06T05:41:21.637Z,6.04
2023-01-06T05:43:25.623Z,6.06
2023-01-06T05:45:29.178Z,6.06
2023-01-06T05:47:34.315Z,6.06
2023-01-06T05:49:39.230Z,6.08
2023-01-06T05:51:42.892Z,6.06
2023-01-06T05:53:48.199Z,6.08
2023-01-06T05:55:51.884Z,6.09
2023-01-06T05:57:55.562Z,6.08
2023-01-06T05:59:59.165Z,6.08
2023-01-06T06:02:02.652Z,6.10
2023-01-06T06:04:07.870Z,6.09
2023-01-06T06:06:11.519Z,6.08
2023-01-06T06:08:15.306Z,6.09
2023-01-06T06:10:18.926Z,6.08
2023-01-06T06:12:22.473Z,6.08
2023-01-06T06:14:26.944Z,6.07
2023-01-06T06:16:30.713Z,6.08
2023-01-06T06:18:34.301Z,6.07
2023-01-06T06:20:39.353Z,6.09
2023-01-06T06:22:42.930Z,6.10
2023-01-06T06:24:46.631Z,6.11
2023-01-06T06:26:50.209Z,6.12
2023-01-06T06:28:53.840Z,6.12
2023-01-06T06:30:57.570Z,6.11
2023-01-06T06:33:01.093Z,6.10
2023-01-06T06:35:04.675Z,6.12
2023-01-06T06:37:11.833Z,6.12
2023-01-06T06:39:16.133Z,6.13
2023-01-06T06:41:20.283Z,6.15
2023-01-06T06:43:23.748Z,6.17
2023-01-06T06:45:27.392Z,6.19
2023-01-06T06:47:30.996Z,6.22
2023-01-06T06:49:34.579Z,6.23
2023-01-06T06:51:38.288Z,6.26
2023-01-06T06:53:43.184Z,6.30
2023-01-06T06:55:46.763Z,6.33
2023-01-06T06:57:50.273Z,6.36
2023-01-06T06:59:53.981Z,6.38
2023-01-06T07:01:57.635Z,6.42
2023-01-06T07:04:01.387Z,6.44
2023-01-06T07:06:05.639Z,6.45
2023-01-06T07:08:09.508Z,6.46
2023-01-06T07:10:17.196Z,6.47
2023-01-06T07:12:20.664Z,6.49
2023-01-06T07:14:24.252Z,6.50
2023-01-06T07:16:27.915Z,6.51
2023-01-06T07:18:31.413Z,6.52
2023-01-06T07:20:36.497Z,6.54
2023-01-06T07:22:40.524Z,6.56
2023-01-06T07:24:44.082Z,6.57
2023-01-06T07:26:48.950Z,6.59
2023-01-06T07:28:52.613Z,6.60
2023-01-06T07:30:56.256Z,6.61
2023-01-06T07:32:59.925Z,6.62
2023-01-06T07:35:03.649Z,6.64
2023-01-06T07:37:07.551Z,6.66
2023-01-06T07:39:11.055Z,6.65
2023-01-06T07:41:14.469Z,6.67
2023-01-06T07:43:19.819Z,6.67
2023-01-06T07:45:23.350Z,6.68
2023-01-06T07:47:26.895Z,6.68
2023-01-06T07:49:30.418Z,6.68
2023-01-06T07:51:34.374Z,6.69
2023-01-06T07:53:39.554Z,6.67
2023-01-06T07:55:43.259Z,6.67
2023-01-06T07:57:46.870Z,6.66
2023-01-06T07:59:51.853Z,6.66
2023-01-06T08:01:55.415Z,6.67
2023-01-06T08:03:59.312Z,6.67
2023-01-06T08:06:08.469Z,6.66
2023-01-06T08:08:12.628Z,6.68
2023-01-06T08:10:16.386Z,6.69
2023-01-06T08:12:19.867Z,6.70
2023-01-06T08:14:23.456Z,6.71
2023-01-06T08:16:28.549Z,6.71
2023-01-06T08:18:32.199Z,6.70
2023-01-06T08:20:35.913Z,6.71
2023-01-06T08:22:39.500Z,6.71
2023-01-06T08:24:43.120Z,6.72
2023-01-06T08:26:46.939Z,6.73
2023-01-06T08:28:50.934Z,6.74
2023-01-06T08:30:56.013Z,6.74
2023-01-06T08:33:01.719Z,6.73
2023-01-06T08:35:06.048Z,6.72
2023-01-06T08:37:09.806Z,6.73
2023-01-06T08:39:15.441Z,6.72
2023-01-06T08:41:19.147Z,6.72
2023-01-06T08:43:22.831Z,6.72
2023-01-06T08:45:26.378Z,6.72
2023-01-06T08:47:29.884Z,6.74
2023-01-06T08:49:35.113Z,6.74
2023-01-06T08:51:38.702Z,6.75
2023-01-06T08:53:44.091Z,6.76
2023-01-06T08:55:47.779Z,6.78
2023-01-06T08:57:53.888Z,6.81
2023-01-06T08:59:58.615Z,6.87
2023-01-06T09:02:05.532Z,6.90
2023-01-06T09:04:11.687Z,6.92
2023-01-06T09:06:18.226Z,6.94
2023-01-06T09:08:21.936Z,6.96
2023-01-06T09:10:26.118Z,6.98
2023-01-06T09:12:29.836Z,6.99
2023-01-06T09:14:33.412Z,7.00
2023-01-06T09:16:37.516Z,7.01
2023-01-06T09:18:47.665Z,7.02
2023-01-06T09:20:51.721Z,7.03
2023-01-06T09:22:57.836Z,7.04
2023-01-06T09:25:04.540Z,7.04
2023-01-06T09:27:09.045Z,7.05
2023-01-06T09:29:13.051Z,7.05
2023-01-06T09:31:18.619Z,7.06
2023-01-06T09:33:22.864Z,7.07
2023-01-06T09:35:26.823Z,7.05
2023-01-06T09:37:30.545Z,7.06
2023-01-06T09:39:37.586Z,7.06
2023-01-06T09:42:01.339Z,7.08
2023-01-06T09:44:07.886Z,7.11
2023-01-06T09:46:18.530Z,7.15
2023-01-06T09:48:28.028Z,7.16
2023-01-06T09:50:36.128Z,7.19
2023-01-06T09:52:43.527Z,7.21
2023-01-06T09:54:55.265Z,7.23
2023-01-06T09:57:04.401Z,7.25
2023-01-06T09:59:12.213Z,7.24
2023-01-06T10:01:22.158Z,7.27
2023-01-06T10:03:28.967Z,7.31
2023-01-06T10:05:43.283Z,7.32
2023-01-06T10:07:56.104Z,7.32
2023-01-06T10:10:13.364Z,7.33
2023-01-06T10:12:33.464Z,7.35
2023-01-06T10:14:48.660Z,7.36
2023-01-06T10:17:07.616Z,7.37
2023-01-06T10:19:21.114Z,7.39
2023-01-06T10:21:34.528Z,7.41
2023-01-06T10:23:53.574Z,7.42
2023-01-06T10:26:10.292Z,7.43
2023-01-06T10:28:21.615Z,7.45
2023-01-06T10:30:30.864Z,7.47
2023-01-06T10:32:40.580Z,7.47
2023-01-06T10:34:47.734Z,7.49
2023-01-06T10:36:58.327Z,7.49
2023-01-06T10:39:07.314Z,7.50
2023-01-06T10:41:21.365Z,7.53
2023-01-06T10:43:25.399Z,7.56
2023-01-06T10:45:34.065Z,7.61
2023-01-06T10:47:38.973Z,7.65
2023-01-06T10:49:43.211Z,7.67
2023-01-06T10:51:53.134Z,7.73
2023-01-06T10:53:59.387Z,7.78
2023-01-06T10:56:05.226Z,7.83
2023-01-06T10:58:25.927Z,7.88
2023-01-06T11:00:32.779Z,7.93
2023-01-06T11:02:37.089Z,7.94
2023-01-06T11:04:52.610Z,7.96
2023-01-06T11:06:59.190Z,7.99
2023-01-06T11:09:09.075Z,8.00
2023-01-06T11:11:33.383Z,8.02
2023-01-06T11:13:40.271Z,8.06
2023-01-06T11:15:44.794Z,8.07
2023-01-06T11:17:48.605Z,8.11
2023-01-06T11:20:08.830Z,8.14
2023-01-06T11:22:35.396Z,8.16
2023-01-06T11:24:53.277Z,8.19
2023-01-06T11:26:58.865Z,8.22
2023-01-06T11:29:19.759Z,8.23
2023-01-06T11:31:26.113Z,8.25
2023-01-06T11:33:31.943Z,8.26
2023-01-06T11:35:35.489Z,8.28
2023-01-06T11:37:42.740Z,8.32
2023-01-06T11:39:49.192Z,8.32
2023-01-06T11:42:06.571Z,8.32
2023-01-06T11:44:18.415Z,8.34
2023-01-06T11:46:25.651Z,8.34
2023-01-06T11:48:32.564Z,8.37
2023-01-06T11:50:36.420Z,8.39
2023-01-06T11:52:41.267Z,8.42
2023-01-06T11:54:45.221Z,8.46
2023-01-06T11:56:59.665Z,8.51
2023-01-06T11:59:10.087Z,8.57
2023-01-06T12:01:20.052Z,8.63
2023-01-06T12:03:31.907Z,8.69
2023-01-06T12:05:40.337Z,8.73
2023-01-06T12:07:51.330Z,8.77
2023-01-06T12:09:59.624Z,8.78
2023-01-06T12:12:08.556Z,8.80
2023-01-06T12:14:27.498Z,8.82
2023-01-06T12:16:39.561Z,8.83
2023-01-06T12:18:44.311Z,8.86
2023-01-06T12:20:51.746Z,8.89
2023-01-06T12:22:58.546Z,8.92
2023-01-06T12:25:03.675Z,8.94
2023-01-06T12:27:08.648Z,8.93
2023-01-06T12:29:18.434Z,8.95
2023-01-06T12:31:27.976Z,8.96
2023-01-06T12:33:37.056Z,8.97
2023-01-06T12:35:43.667Z,9.00
2023-01-06T12:37:49.810Z,9.03
2023-01-06T12:40:01.392Z,9.06
2023-01-06T12:42:14.338Z,9.13
2023-01-06T12:44:30.771Z,9.20
2023-01-06T12:46:41.769Z,9.26
2023-01-06T12:48:51.800Z,9.29
2023-01-06T12:51:01.526Z,9.35
2023-01-06T12:53:20.229Z,9.39
2023-01-06T12:55:34.949Z,9.40
2023-01-06T12:57:53.492Z,9.41
2023-01-06T13:00:08.181Z,9.40
2023-01-06T13:02:26.580Z,9.40
2023-01-06T13:04:49.496Z,9.42
2023-01-06T13:07:04.003Z,9.45
2023-01-06T13:09:22.420Z,9.45
2023-01-06T13:11:39.875Z,9.47
2023-01-06T13:13:56.037Z,9.45
2023-01-06T13:16:03.132Z,9.43
2023-01-06T13:18:15.996Z,9.42
2023-01-06T13:20:27.445Z,9.41
2023-01-06T13:22:44.720Z,9.41
2023-01-06T13:25:18.774Z,9.44
2023-01-06T13:27:39.279Z,9.46
2023-01-06T13:29:57.629Z,9.49
2023-01-06T13:32:18.545Z,9.51
2023-01-06T13:34:52.679Z,9.53
2023-01-06T13:37:18.186Z,9.53
2023-01-06T13:39:24.719Z,9.52
2023-01-06T13:41:33.828Z,9.52
2023-01-06T13:43:37.503Z,9.51
2023-01-06T13:45:44.484Z,9.51
2023-01-06T13:47:50.211Z,9.50
2023-01-06T13:49:54.380Z,9.49
2023-01-06T13:51:58.813Z,9.52
2023-01-06T13:54:03.999Z,9.54
2023-01-06T13:56:26.996Z,9.53
2023-01-06T13:58:38.167Z,9.54
2023-01-06T14:00:44.650Z,9.52
2023-01-06T14:03:25.962Z,9.48
2023-01-06T14:05:57.713Z,9.47
2023-01-06T14:08:03.307Z,9.46
2023-01-06T14:10:28.845Z,9.43
2023-01-06T14:12:35.829Z,9.43
2023-01-06T14:14:40.318Z,9.42
2023-01-06T14:16:47.103Z,9.39
2023-01-06T14:18:52.506Z,9.39
2023-01-06T14:21:02.611Z,9.38
2023-01-06T14:23:18.574Z,9.38
2023-01-06T14:25:26.004Z,9.34
2023-01-06T14:28:08.306Z,9.31
2023-01-06T14:30:22.364Z,9.30
2023-01-06T14:33:01.597Z,9.28
2023-01-06T14:35:11.330Z,9.28
2023-01-06T14:37:17.074Z,9.26
2023-01-06T14:39:26.066Z,9.27
2023-01-06T14:41:34.507Z,9.27
2023-01-06T14:43:54.592Z,9.25
2023-01-06T14:46:01.744Z,9.27
2023-01-06T14:48:09.497Z,9.25
2023-01-06T14:50:18.719Z,9.24
2023-01-06T14:52:30.302Z,9.25
2023-01-06T14:54:38.911Z,9.26
2023-01-06T14:56:54.436Z,9.27
2023-01-06T14:59:12.401Z,9.27
2023-01-06T15:01:25.124Z,9.28
2023-01-06T15:03:30.339Z,9.28
2023-01-06T15:05:37.221Z,9.29
2023-01-06T15:07:40.737Z,9.30
2023-01-06T15:09:44.358Z,9.30
2023-01-06T15:11:49.224Z,9.30
2023-01-06T15:13:53.455Z,9.30
2023-01-06T15:16:04.865Z,9.32
2023-01-06T15:18:09.391Z,9.33
2023-01-06T15:20:14.837Z,9.32
2023-01-06T15:22:24.396Z,9.30
2023-01-06T15:24:31.357Z,9.30
2023-01-06T15:26:34.917Z,9.29
2023-01-06T15:28:39.890Z,9.30
2023-01-06T15:30:51.436Z,9.29
2023-01-06T15:32:56.202Z,9.28
2023-01-06T15:35:00.989Z,9.25
2023-01-06T15:37:08.552Z,9.25
2023-01-06T15:39:15.201Z,9.24
2023-01-06T15:43:50.173Z,9.20
2023-01-06T15:46:00.126Z,9.17
2023-01-06T15:48:12.440Z,9.12
2023-01-06T15:50:20.722Z,9.12
2023-01-06T15:52:28.072Z,9.07
2023-01-06T15:54:35.932Z,9.04
2023-01-06T15:56:41.770Z,9.01
2023-01-06T15:58:45.651Z,8.98
2023-01-06T16:01:02.371Z,8.97
2023-01-06T16:03:07.640Z,8.97
2023-01-06T16:05:36.019Z,8.97
2023-01-06T16:07:43.318Z,8.97
2023-01-06T16:09:47.020Z,8.96
2023-01-06T16:11:57.775Z,8.98
2023-01-06T16:14:01.439Z,8.98
2023-01-06T16:16:25.558Z,8.97
2023-01-06T16:18:32.390Z,8.95
2023-01-06T16:20:36.160Z,8.97
2023-01-06T16:22:50.286Z,8.94
2023-01-06T16:24:54.686Z,8.93
2023-01-06T16:27:02.417Z,8.91
2023-01-06T16:29:26.056Z,8.86
2023-01-06T16:31:31.966Z,8.83
2023-01-06T16:33:39.520Z,8.82
2023-01-06T16:35:43.679Z,8.81
2023-01-06T16:37:47.493Z,8.81
2023-01-06T16:39:58.858Z,8.82
2023-01-06T16:42:41.083Z,8.85
2023-01-06T16:44:44.915Z,8.88
2023-01-06T16:46:49.865Z,8.89
2023-01-06T16:48:56.294Z,8.91
2023-01-06T16:51:00.041Z,8.94
2023-01-06T16:53:12.344Z,8.95
2023-01-06T16:55:17.948Z,8.96
2023-01-06T16:57:21.934Z,8.98
2023-01-06T16:59:27.599Z,9.00
2023-01-06T17:01:31.385Z,9.00
2023-01-06T17:03:39.506Z,9.01
2023-01-06T17:05:43.210Z,9.01
2023-01-06T17:07:46.927Z,9.01
2023-01-06T17:09:51.530Z,9.01
2023-01-06T17:11:55.538Z,9.01
2023-01-06T17:14:02.209Z,9.01
2023-01-06T17:16:15.737Z,9.00
2023-01-06T17:18:25.651Z,8.97
2023-01-06T17:20:32.028Z,8.97
2023-01-06T17:22:35.637Z,8.97
2023-01-06T17:24:39.160Z,8.99
2023-01-06T17:26:49.502Z,8.98
2023-01-06T17:28:55.536Z,9.03
2023-01-06T17:31:00.613Z,9.05
2023-01-06T17:33:05.425Z,9.06
2023-01-06T17:35:22.737Z,9.08
2023-01-06T17:37:29.982Z,9.08
2023-01-06T17:39:39.012Z,9.09
2023-01-06T17:41:43.055Z,9.10
2023-01-06T17:43:47.700Z,9.13
2023-01-06T17:45:51.548Z,9.14
2023-01-06T17:47:56.118Z,9.17
2023-01-06T17:50:01.488Z,9.18
2023-01-06T17:52:22.554Z,9.18
2023-01-06T17:54:45.034Z,9.17
2023-01-06T17:56:49.225Z,9.15
2023-01-06T17:58:52.833Z,9.12
2023-01-06T18:00:57.197Z,9.09
2023-01-06T18:03:04.036Z,9.07
2023-01-06T18:05:58.646Z,9.03
2023-01-06T18:08:08.171Z,8.99
2023-01-06T18:10:18.013Z,8.97
2023-01-06T18:12:22.307Z,8.92
2023-01-06T18:14:33.152Z,8.89
2023-01-06T18:16:37.073Z,8.87
2023-01-06T18:18:42.519Z,8.86
2023-01-06T18:20:48.652Z,8.84
2023-01-06T18:22:52.371Z,8.81
2023-01-06T18:24:59.416Z,8.82
2023-01-06T18:27:08.132Z,8.81
2023-01-06T18:29:16.916Z,8.81
2023-01-06T18:31:23.989Z,8.81
2023-01-06T18:33:29.901Z,8.79
2023-01-06T18:35:33.542Z,8.79
2023-01-06T18:37:37.387Z,8.78
2023-01-06T18:39:42.978Z,8.78
2023-01-06T18:41:46.661Z,8.77
2023-01-06T18:43:51.756Z,8.76
2023-01-06T18:45:57.689Z,8.75
2023-01-06T18:48:05.525Z,8.77
2023-01-06T18:50:27.873Z,8.75
2023-01-06T18:52:50.149Z,8.73
2023-01-06T18:54:56.334Z,8.73
2023-01-06T18:57:00.577Z,8.74
2023-01-06T18:59:15.057Z,8.74
2023-01-06T19:01:21.042Z,8.73
2023-01-06T19:03:35.304Z,8.73
2023-01-06T19:05:39.790Z,8.72
2023-01-06T19:07:43.499Z,8.74
2023-01-06T19:09:48.881Z,8.74
2023-01-06T19:12:01.669Z,8.75
2023-01-06T19:14:17.080Z,8.75
2023-01-06T19:16:36.123Z,8.76
2023-01-06T19:18:39.890Z,8.76
2023-01-06T19:20:45.915Z,8.78
2023-01-06T19:22:50.435Z,8.80
2023-01-06T19:25:04.707Z,8.83
2023-01-06T19:27:43.336Z,8.84
2023-01-06T19:29:48.691Z,8.83
2023-01-06T19:31:57.202Z,8.85
2023-01-06T19:34:02.793Z,8.85
2023-01-06T19:36:41.341Z,8.90
2023-01-06T19:38:45.727Z,8.94
2023-01-06T19:40:49.411Z,9.05
2023-01-06T19:42:54.038Z,9.15
2023-01-06T19:45:03.057Z,9.26
2023-01-06T19:47:20.027Z,9.40
2023-01-06T19:49:25.421Z,9.47
2023-01-06T19:51:34.309Z,9.55
2023-01-06T19:53:44.478Z,9.59
2023-01-06T19:55:48.139Z,9.65
2023-01-06T19:57:53.475Z,9.69
2023-01-06T20:00:01.854Z,9.71
2023-01-06T20:02:28.601Z,9.74
2023-01-06T20:04:32.385Z,9.75
2023-01-06T20:06:35.961Z,9.77
2023-01-06T20:08:41.420Z,9.79
2023-01-06T20:10:45.040Z,9.79
2023-01-06T20:12:48.970Z,9.81
2023-01-06T20:14:52.626Z,9.81
2023-01-06T20:16:59.698Z,9.82
2023-01-06T20:19:03.421Z,9.85
2023-01-06T20:21:08.005Z,9.86
2023-01-06T20:23:12.480Z,9.87
2023-01-06T20:25:16.303Z,9.89
2023-01-06T20:27:19.909Z,9.91
2023-01-06T20:29:23.443Z,9.97
2023-01-06T20:31:27.016Z,10.04
2023-01-06T20:33:32.418Z,10.06
2023-01-06T20:35:35.988Z,10.05
2023-01-06T20:37:40.349Z,10.05
2023-01-06T20:39:45.422Z,10.05
2023-01-06T20:41:49.039Z,10.04
2023-01-06T20:43:53.031Z,10.04
2023-01-06T20:45:57.179Z,10.04
2023-01-06T20:48:00.838Z,10.02
2023-01-06T20:50:07.761Z,10.06
2023-01-06T20:52:11.382Z,10.09
2023-01-06T20:54:15.326Z,10.10
2023-01-06T20:56:19.204Z,10.10
2023-01-06T20:58:23.320Z,10.10
2023-01-06T21:00:27.165Z,10.06
2023-01-06T21:02:31.135Z,10.06
2023-01-06T21:04:34.909Z,10.03
2023-01-06T21:06:40.176Z,10.01
2023-01-06T21:08:43.765Z,9.97
2023-01-06T21:10:47.816Z,9.95
2023-01-06T21:12:51.614Z,9.94
2023-01-06T21:14:55.487Z,9.94
2023-01-06T21:16:59.533Z,9.96
2023-01-06T21:19:03.365Z,9.99
2023-01-06T21:21:08.349Z,10.02
2023-01-06T21:23:14.088Z,10.02
2023-01-06T21:25:20.035Z,10.04
2023-01-06T21:27:24.044Z,10.04
2023-01-06T21:29:28.008Z,10.05
2023-01-06T21:31:31.712Z,10.07
2023-01-06T21:33:35.329Z,10.06
2023-01-06T21:35:38.975Z,10.05
2023-01-06T21:37:42.711Z,10.05
2023-01-06T21:39:48.422Z,10.03
2023-01-06T21:42:09.641Z,10.02
2023-01-06T21:44:13.337Z,10.01
2023-01-06T21:46:17.109Z,9.99
2023-01-06T21:48:22.625Z,9.99
2023-01-06T21:50:27.105Z,9.98
2023-01-06T21:52:30.800Z,9.99
2023-01-06T21:54:34.669Z,9.98
2023-01-06T21:56:39.709Z,9.98
2023-01-06T21:58:43.283Z,9.97
2023-01-06T22:00:47.114Z,9.97
2023-01-06T22:02:53.425Z,9.98
2023-01-06T22:04:57.157Z,9.97
2023-01-06T22:07:04.244Z,9.96
2023-01-06T22:09:09.875Z,9.95
2023-01-06T22:11:13.832Z,9.96
2023-01-06T22:13:21.356Z,9.95
2023-01-06T22:15:25.574Z,9.92
2023-01-06T22:17:29.366Z,9.88
2023-01-06T22:19:33.509Z,9.85
2023-01-06T22:21:38.053Z,9.81
2023-01-06T22:23:41.814Z,9.78
2023-01-06T22:25:45.570Z,9.75
2023-01-06T22:27:49.183Z,9.73
2023-01-06T22:29:54.078Z,9.72
2023-01-06T22:32:02.752Z,9.70
2023-01-06T22:34:08.506Z,9.70
2023-01-06T22:36:13.113Z,9.68
2023-01-06T22:38:16.991Z,9.68
2023-01-06T22:40:21.620Z,9.67
2023-01-06T22:42:25.472Z,9.66
2023-01-06T22:44:29.243Z,9.65
2023-01-06T22:46:34.333Z,9.64
2023-01-06T22:48:38.801Z,9.64
2023-01-06T22:50:42.530Z,9.64
2023-01-06T22:52:46.160Z,9.63
2023-01-06T22:54:49.722Z,9.61
2023-01-06T22:56:53.425Z,9.61
2023-01-06T22:58:57.325Z,9.60
2023-01-06T23:01:01.268Z,9.60
2023-01-06T23:03:06.277Z,9.60
2023-01-06T23:05:10.977Z,9.59
2023-01-06T23:07:14.664Z,9.59
2023-01-06T23:09:18.523Z,9.57
2023-01-06T23:11:22.570Z,9.56
2023-01-06T23:13:26.788Z,9.55
2023-01-06T23:15:30.187Z,9.53
2023-01-06T23:17:33.837Z,9.52
2023-01-06T23:19:38.989Z,9.51
2023-01-06T23:21:42.924Z,9.48
2023-01-06T23:23:47.587Z,9.48
2023-01-06T23:25:51.134Z,9.47
2023-01-06T23:27:54.867Z,9.46
2023-01-06T23:29:58.370Z,9.44
2023-01-06T23:32:02.111Z,9.45
2023-01-06T23:34:07.593Z,9.46
2023-01-06T23:36:15.672Z,9.46
2023-01-06T23:38:19.353Z,9.45
2023-01-06T23:40:23.070Z,9.46
2023-01-06T23:42:28.650Z,9.46
2023-01-06T23:44:32.353Z,9.47
2023-01-06T23:46:37.782Z,9.48
2023-01-06T23:48:42.220Z,9.48
2023-01-06T23:50:51.540Z,9.48
2023-01-06T23:52:56.852Z,9.51
2023-01-06T23:55:00.287Z,9.49
2023-01-06T23:57:03.971Z,9.49
2023-01-06T23:59:09.121Z,9.49
